Aviation Digital Data Service (ADDS)

Output produced by METARs form (1815 UTC 19 April 2019)
found at http://www.aviationweather.gov/metar/data/
 
METAR text: EBLG 191750Z 04007KT CAVOK 19/03 Q1026 NOSIG
Conditions at: EBLG (BIERSET/LIEGE (C, BE) observed 1750 UTC 19 April 2019
Temperature: 19.0°C (66°F)
Dewpoint: 3.0°C (37°F) [RH = 34%]
Pressure (altimeter): 30.30 inches Hg (1026.0 mb)
Winds: from the NE (40 degrees) at 8 MPH (7 knots; 3.6 m/s)
Visibility: 6 or more miles (10+ km)
Ceiling: ceiling and visibility are OK
Clouds: unknown
Weather: no significant weather observed at this time

METAR text: EBLG 191720Z 04008KT CAVOK 20/03 Q1026 NOSIG
Conditions at: EBLG (BIERSET/LIEGE (C, BE) observed 1720 UTC 19 April 2019
Temperature: 20.0°C (68°F)
Dewpoint: 3.0°C (37°F) [RH = 32%]
Pressure (altimeter): 30.30 inches Hg (1026.0 mb)
Winds: from the NE (40 degrees) at 9 MPH (8 knots; 4.1 m/s)
Visibility: 6 or more miles (10+ km)
Ceiling: ceiling and visibility are OK
Clouds: unknown
Weather: no significant weather observed at this time

METAR text: EBLG 191650Z 05011KT CAVOK 22/02 Q1026 NOSIG
Conditions at: EBLG (BIERSET/LIEGE (C, BE) observed 1650 UTC 19 April 2019
Temperature: 22.0°C (72°F)
Dewpoint: 2.0°C (36°F) [RH = 27%]
Pressure (altimeter): 30.30 inches Hg (1026.0 mb)
Winds: from the NE (50 degrees) at 13 MPH (11 knots; 5.7 m/s)
Visibility: 6 or more miles (10+ km)
Ceiling: ceiling and visibility are OK
Clouds: unknown
Weather: no significant weather observed at this time

METAR text: EBLG 191620Z 04009KT CAVOK 21/05 Q1026 NOSIG
Conditions at: EBLG (BIERSET/LIEGE (C, BE) observed 1620 UTC 19 April 2019
Temperature: 21.0°C (70°F)
Dewpoint: 5.0°C (41°F) [RH = 35%]
Pressure (altimeter): 30.30 inches Hg (1026.0 mb)
Winds: from the NE (40 degrees) at 10 MPH (9 knots; 4.6 m/s)
Visibility: 6 or more miles (10+ km)
Ceiling: ceiling and visibility are OK
Clouds: unknown
Weather: no significant weather observed at this time

METAR text: EBLG 191550Z 05013KT CAVOK 22/03 Q1026 NOSIG
Conditions at: EBLG (BIERSET/LIEGE (C, BE) observed 1550 UTC 19 April 2019
Temperature: 22.0°C (72°F)
Dewpoint: 3.0°C (37°F) [RH = 29%]
Pressure (altimeter): 30.30 inches Hg (1026.0 mb)
Winds: from the NE (50 degrees) at 15 MPH (13 knots; 6.7 m/s)
Visibility: 6 or more miles (10+ km)
Ceiling: ceiling and visibility are OK
Clouds: unknown
Weather: no significant weather observed at this time

METAR text: EBLG 191520Z 04012KT CAVOK 21/05 Q1026 NOSIG
Conditions at: EBLG (BIERSET/LIEGE (C, BE) observed 1520 UTC 19 April 2019
Temperature: 21.0°C (70°F)
Dewpoint: 5.0°C (41°F) [RH = 35%]
Pressure (altimeter): 30.30 inches Hg (1026.0 mb)
Winds: from the NE (40 degrees) at 14 MPH (12 knots; 6.2 m/s)
Visibility: 6 or more miles (10+ km)
Ceiling: ceiling and visibility are OK
Clouds: unknown
Weather: no significant weather observed at this time

METAR text: EBLG 191450Z 05012KT 020V080 CAVOK 23/04 Q1026 NOSIG
Conditions at: EBLG (BIERSET/LIEGE (C, BE) observed 1450 UTC 19 April 2019
Temperature: 23.0°C (73°F)
Dewpoint: 4.0°C (39°F) [RH = 29%]
Pressure (altimeter): 30.30 inches Hg (1026.0 mb)
Winds: from the NE (50 degrees) at 14 MPH (12 knots; 6.2 m/s)
Visibility: 6 or more miles (10+ km)
Ceiling: ceiling and visibility are OK
Clouds: unknown
Weather: no significant weather observed at this time

METAR text: EBLG 191420Z 09009KT CAVOK 23/04 Q1026 NOSIG
Conditions at: EBLG (BIERSET/LIEGE (C, BE) observed 1420 UTC 19 April 2019
Temperature: 23.0°C (73°F)
Dewpoint: 4.0°C (39°F) [RH = 29%]
Pressure (altimeter): 30.30 inches Hg (1026.0 mb)
Winds: from the E (90 degrees) at 10 MPH (9 knots; 4.6 m/s)
Visibility: 6 or more miles (10+ km)
Ceiling: ceiling and visibility are OK
Clouds: unknown
Weather: no significant weather observed at this time

METAR text: EBLG 191350Z 06008KT 020V100 CAVOK 23/05 Q1026 NOSIG
Conditions at: EBLG (BIERSET/LIEGE (C, BE) observed 1350 UTC 19 April 2019
Temperature: 23.0°C (73°F)
Dewpoint: 5.0°C (41°F) [RH = 31%]
Pressure (altimeter): 30.30 inches Hg (1026.0 mb)
Winds: from the ENE (60 degrees) at 9 MPH (8 knots; 4.1 m/s)
Visibility: 6 or more miles (10+ km)
Ceiling: ceiling and visibility are OK
Clouds: unknown
Weather: no significant weather observed at this time

METAR text: EBLG 191320Z 08006KT 050V150 CAVOK 23/06 Q1026 NOSIG
Conditions at: EBLG (BIERSET/LIEGE (C, BE) observed 1320 UTC 19 April 2019
Temperature: 23.0°C (73°F)
Dewpoint: 6.0°C (43°F) [RH = 33%]
Pressure (altimeter): 30.30 inches Hg (1026.0 mb)
Winds: from the E (80 degrees) at 7 MPH (6 knots; 3.1 m/s)
Visibility: 6 or more miles (10+ km)
Ceiling: ceiling and visibility are OK
Clouds: unknown
Weather: no significant weather observed at this time

METAR text: EBLG 191250Z 12007G19KT 050V160 CAVOK 23/03 Q1026 NOSIG
Conditions at: EBLG (BIERSET/LIEGE (C, BE) observed 1250 UTC 19 April 2019
Temperature: 23.0°C (73°F)
Dewpoint: 3.0°C (37°F) [RH = 27%]
Pressure (altimeter): 30.30 inches Hg (1026.0 mb)
Winds: from the ESE (120 degrees) at 8 MPH (7 knots; 3.6 m/s)
gusting to 22 MPH (19 knots; 9.8 m/s)
Visibility: 6 or more miles (10+ km)
Ceiling: ceiling and visibility are OK
Clouds: unknown
Weather: no significant weather observed at this time

METAR text: EBLG 191220Z 14007KT 070V240 CAVOK 23/05 Q1026 NOSIG
Conditions at: EBLG (BIERSET/LIEGE (C, BE) observed 1220 UTC 19 April 2019
Temperature: 23.0°C (73°F)
Dewpoint: 5.0°C (41°F) [RH = 31%]
Pressure (altimeter): 30.30 inches Hg (1026.0 mb)
Winds: from the SE (140 degrees) at 8 MPH (7 knots; 3.6 m/s)
Visibility: 6 or more miles (10+ km)
Ceiling: ceiling and visibility are OK
Clouds: unknown
Weather: no significant weather observed at this time

METAR text: EBLG 191150Z 14009KT 110V180 CAVOK 23/02 Q1026 NOSIG
Conditions at: EBLG (BIERSET/LIEGE (C, BE) observed 1150 UTC 19 April 2019
Temperature: 23.0°C (73°F)
Dewpoint: 2.0°C (36°F) [RH = 25%]
Pressure (altimeter): 30.30 inches Hg (1026.0 mb)
Winds: from the SE (140 degrees) at 10 MPH (9 knots; 4.6 m/s)
Visibility: 6 or more miles (10+ km)
Ceiling: ceiling and visibility are OK
Clouds: unknown
Weather: no significant weather observed at this time

METAR text: EBLG 191120Z 10006KT 060V170 CAVOK 23/03 Q1026 NOSIG
Conditions at: EBLG (BIERSET/LIEGE (C, BE) observed 1120 UTC 19 April 2019
Temperature: 23.0°C (73°F)
Dewpoint: 3.0°C (37°F) [RH = 27%]
Pressure (altimeter): 30.30 inches Hg (1026.0 mb)
Winds: from the E (100 degrees) at 7 MPH (6 knots; 3.1 m/s)
Visibility: 6 or more miles (10+ km)
Ceiling: ceiling and visibility are OK
Clouds: unknown
Weather: no significant weather observed at this time

METAR text: EBLG 191050Z 10007KT 060V140 CAVOK 22/04 Q1026 NOSIG
Conditions at: EBLG (BIERSET/LIEGE (C, BE) observed 1050 UTC 19 April 2019
Temperature: 22.0°C (72°F)
Dewpoint: 4.0°C (39°F) [RH = 31%]
Pressure (altimeter): 30.30 inches Hg (1026.0 mb)
Winds: from the E (100 degrees) at 8 MPH (7 knots; 3.6 m/s)
Visibility: 6 or more miles (10+ km)
Ceiling: ceiling and visibility are OK
Clouds: unknown
Weather: no significant weather observed at this time

METAR text: EBLG 191020Z 05007KT CAVOK 21/07 Q1026 NOSIG
Conditions at: EBLG (BIERSET/LIEGE (C, BE) observed 1020 UTC 19 April 2019
Temperature: 21.0°C (70°F)
Dewpoint: 7.0°C (45°F) [RH = 40%]
Pressure (altimeter): 30.30 inches Hg (1026.0 mb)
Winds: from the NE (50 degrees) at 8 MPH (7 knots; 3.6 m/s)
Visibility: 6 or more miles (10+ km)
Ceiling: ceiling and visibility are OK
Clouds: unknown
Weather: no significant weather observed at this time

METAR text: EBLG 190950Z 04008KT CAVOK 20/06 Q1027 NOSIG
Conditions at: EBLG (BIERSET/LIEGE (C, BE) observed 0950 UTC 19 April 2019
Temperature: 20.0°C (68°F)
Dewpoint: 6.0°C (43°F) [RH = 40%]
Pressure (altimeter): 30.32 inches Hg (1027.0 mb)
Winds: from the NE (40 degrees) at 9 MPH (8 knots; 4.1 m/s)
Visibility: 6 or more miles (10+ km)
Ceiling: ceiling and visibility are OK
Clouds: unknown
Weather: no significant weather observed at this time

METAR text: EBLG 190920Z 04008KT 020V080 CAVOK 19/07 Q1027 NOSIG
Conditions at: EBLG (BIERSET/LIEGE (C, BE) observed 0920 UTC 19 April 2019
Temperature: 19.0°C (66°F)
Dewpoint: 7.0°C (45°F) [RH = 46%]
Pressure (altimeter): 30.32 inches Hg (1027.0 mb)
Winds: from the NE (40 degrees) at 9 MPH (8 knots; 4.1 m/s)
Visibility: 6 or more miles (10+ km)
Ceiling: ceiling and visibility are OK
Clouds: unknown
Weather: no significant weather observed at this time

METAR text: EBLG 190850Z 02007KT CAVOK 18/07 Q1027 NOSIG
Conditions at: EBLG (BIERSET/LIEGE (C, BE) observed 0850 UTC 19 April 2019
Temperature: 18.0°C (64°F)
Dewpoint: 7.0°C (45°F) [RH = 49%]
Pressure (altimeter): 30.32 inches Hg (1027.0 mb)
Winds: from the NNE (20 degrees) at 8 MPH (7 knots; 3.6 m/s)
Visibility: 6 or more miles (10+ km)
Ceiling: ceiling and visibility are OK
Clouds: unknown
Weather: no significant weather observed at this time

METAR text: EBLG 190820Z 03005KT 350V080 CAVOK 17/06 Q1027 NOSIG
Conditions at: EBLG (BIERSET/LIEGE (C, BE) observed 0820 UTC 19 April 2019
Temperature: 17.0°C (63°F)
Dewpoint: 6.0°C (43°F) [RH = 48%]
Pressure (altimeter): 30.32 inches Hg (1027.0 mb)
Winds: from the NNE (30 degrees) at 6 MPH (5 knots; 2.6 m/s)
Visibility: 6 or more miles (10+ km)
Ceiling: ceiling and visibility are OK
Clouds: unknown
Weather: no significant weather observed at this time

METAR text: EBLG 190750Z 06004KT 350V110 CAVOK 17/05 Q1027 NOSIG
Conditions at: EBLG (BIERSET/LIEGE (C, BE) observed 0750 UTC 19 April 2019
Temperature: 17.0°C (63°F)
Dewpoint: 5.0°C (41°F) [RH = 45%]
Pressure (altimeter): 30.32 inches Hg (1027.0 mb)
Winds: from the ENE (60 degrees) at 5 MPH (4 knots; 2.1 m/s)
Visibility: 6 or more miles (10+ km)
Ceiling: ceiling and visibility are OK
Clouds: unknown
Weather: no significant weather observed at this time

METAR text: EBLG 190720Z 10005KT 070V130 CAVOK 16/04 Q1026 NOSIG
Conditions at: EBLG (BIERSET/LIEGE (C, BE) observed 0720 UTC 19 April 2019
Temperature: 16.0°C (61°F)
Dewpoint: 4.0°C (39°F) [RH = 45%]
Pressure (altimeter): 30.30 inches Hg (1026.0 mb)
Winds: from the E (100 degrees) at 6 MPH (5 knots; 2.6 m/s)
Visibility: 6 or more miles (10+ km)
Ceiling: ceiling and visibility are OK
Clouds: unknown
Weather: no significant weather observed at this time

METAR text: EBLG 190650Z VRB05KT CAVOK 15/04 Q1026 NOSIG
Conditions at: EBLG (BIERSET/LIEGE (C, BE) observed 0650 UTC 19 April 2019
Temperature: 15.0°C (59°F)
Dewpoint: 4.0°C (39°F) [RH = 48%]
Pressure (altimeter): 30.30 inches Hg (1026.0 mb)
Winds: variable direction winds at 6 MPH (5 knots; 2.6 m/s)
Visibility: 6 or more miles (10+ km)
Ceiling: ceiling and visibility are OK
Clouds: unknown
Weather: no significant weather observed at this time

METAR text: EBLG 190620Z 11004KT CAVOK 14/04 Q1026 NOSIG
Conditions at: EBLG (BIERSET/LIEGE (C, BE) observed 0620 UTC 19 April 2019
Temperature: 14.0°C (57°F)
Dewpoint: 4.0°C (39°F) [RH = 51%]
Pressure (altimeter): 30.30 inches Hg (1026.0 mb)
Winds: from the ESE (110 degrees) at 5 MPH (4 knots; 2.1 m/s)
Visibility: 6 or more miles (10+ km)
Ceiling: ceiling and visibility are OK
Clouds: unknown
Weather: no significant weather observed at this time

METAR text: EBLG 190550Z 11004KT CAVOK 12/04 Q1026 NOSIG
Conditions at: EBLG (BIERSET/LIEGE (C, BE) observed 0550 UTC 19 April 2019
Temperature: 12.0°C (54°F)
Dewpoint: 4.0°C (39°F) [RH = 58%]
Pressure (altimeter): 30.30 inches Hg (1026.0 mb)
Winds: from the ESE (110 degrees) at 5 MPH (4 knots; 2.1 m/s)
Visibility: 6 or more miles (10+ km)
Ceiling: ceiling and visibility are OK
Clouds: unknown
Weather: no significant weather observed at this time

METAR text: EBLG 190520Z 10003KT CAVOK 11/03 Q1026 NOSIG
Conditions at: EBLG (BIERSET/LIEGE (C, BE) observed 0520 UTC 19 April 2019
Temperature: 11.0°C (52°F)
Dewpoint: 3.0°C (37°F) [RH = 58%]
Pressure (altimeter): 30.30 inches Hg (1026.0 mb)
Winds: from the E (100 degrees) at 3 MPH (3 knots; 1.5 m/s)
Visibility: 6 or more miles (10+ km)
Ceiling: ceiling and visibility are OK
Clouds: unknown
Weather: no significant weather observed at this time

METAR text: EBLG 190450Z 09006G19KT 030V130 CAVOK 11/02 Q1026 NOSIG
Conditions at: EBLG (BIERSET/LIEGE (C, BE) observed 0450 UTC 19 April 2019
Temperature: 11.0°C (52°F)
Dewpoint: 2.0°C (36°F) [RH = 54%]
Pressure (altimeter): 30.30 inches Hg (1026.0 mb)
Winds: from the E (90 degrees) at 7 MPH (6 knots; 3.1 m/s)
gusting to 22 MPH (19 knots; 9.8 m/s)
Visibility: 6 or more miles (10+ km)
Ceiling: ceiling and visibility are OK
Clouds: unknown
Weather: no significant weather observed at this time

METAR text: EBLG 190420Z VRB05KT CAVOK 11/03 Q1025 NOSIG
Conditions at: EBLG (BIERSET/LIEGE (C, BE) observed 0420 UTC 19 April 2019
Temperature: 11.0°C (52°F)
Dewpoint: 3.0°C (37°F) [RH = 58%]
Pressure (altimeter): 30.27 inches Hg (1025.0 mb)
Winds: variable direction winds at 6 MPH (5 knots; 2.6 m/s)
Visibility: 6 or more miles (10+ km)
Ceiling: ceiling and visibility are OK
Clouds: unknown
Weather: no significant weather observed at this time

METAR text: EBLG 190350Z 09006KT CAVOK 12/03 Q1025 NOSIG
Conditions at: EBLG (BIERSET/LIEGE (C, BE) observed 0350 UTC 19 April 2019
Temperature: 12.0°C (54°F)
Dewpoint: 3.0°C (37°F) [RH = 54%]
Pressure (altimeter): 30.27 inches Hg (1025.0 mb)
Winds: from the E (90 degrees) at 7 MPH (6 knots; 3.1 m/s)
Visibility: 6 or more miles (10+ km)
Ceiling: ceiling and visibility are OK
Clouds: unknown
Weather: no significant weather observed at this time

METAR text: EBLG 190320Z 07006G18KT 020V110 CAVOK 11/03 Q1025 NOSIG
Conditions at: EBLG (BIERSET/LIEGE (C, BE) observed 0320 UTC 19 April 2019
Temperature: 11.0°C (52°F)
Dewpoint: 3.0°C (37°F) [RH = 58%]
Pressure (altimeter): 30.27 inches Hg (1025.0 mb)
Winds: from the ENE (70 degrees) at 7 MPH (6 knots; 3.1 m/s)
gusting to 21 MPH (18 knots; 9.3 m/s)
Visibility: 6 or more miles (10+ km)
Ceiling: ceiling and visibility are OK
Clouds: unknown
Weather: no significant weather observed at this time

METAR text: EBLG 190250Z 07006G20KT 010V120 CAVOK 12/03 Q1025 NOSIG
Conditions at: EBLG (BIERSET/LIEGE (C, BE) observed 0250 UTC 19 April 2019
Temperature: 12.0°C (54°F)
Dewpoint: 3.0°C (37°F) [RH = 54%]
Pressure (altimeter): 30.27 inches Hg (1025.0 mb)
Winds: from the ENE (70 degrees) at 7 MPH (6 knots; 3.1 m/s)
gusting to 23 MPH (20 knots; 10.3 m/s)
Visibility: 6 or more miles (10+ km)
Ceiling: ceiling and visibility are OK
Clouds: unknown
Weather: no significant weather observed at this time

METAR text: EBLG 190220Z 08006KT 020V110 CAVOK 12/03 Q1025 NOSIG
Conditions at: EBLG (BIERSET/LIEGE (C, BE) observed 0220 UTC 19 April 2019
Temperature: 12.0°C (54°F)
Dewpoint: 3.0°C (37°F) [RH = 54%]
Pressure (altimeter): 30.27 inches Hg (1025.0 mb)
Winds: from the E (80 degrees) at 7 MPH (6 knots; 3.1 m/s)
Visibility: 6 or more miles (10+ km)
Ceiling: ceiling and visibility are OK
Clouds: unknown
Weather: no significant weather observed at this time

METAR text: EBLG 190150Z 08007KT CAVOK 13/03 Q1025 NOSIG
Conditions at: EBLG (BIERSET/LIEGE (C, BE) observed 0150 UTC 19 April 2019
Temperature: 13.0°C (55°F)
Dewpoint: 3.0°C (37°F) [RH = 51%]
Pressure (altimeter): 30.27 inches Hg (1025.0 mb)
Winds: from the E (80 degrees) at 8 MPH (7 knots; 3.6 m/s)
Visibility: 6 or more miles (10+ km)
Ceiling: ceiling and visibility are OK
Clouds: unknown
Weather: no significant weather observed at this time

METAR text: EBLG 190120Z 08006KT CAVOK 13/03 Q1025 NOSIG
Conditions at: EBLG (BIERSET/LIEGE (C, BE) observed 0120 UTC 19 April 2019
Temperature: 13.0°C (55°F)
Dewpoint: 3.0°C (37°F) [RH = 51%]
Pressure (altimeter): 30.27 inches Hg (1025.0 mb)
Winds: from the E (80 degrees) at 7 MPH (6 knots; 3.1 m/s)
Visibility: 6 or more miles (10+ km)
Ceiling: ceiling and visibility are OK
Clouds: unknown
Weather: no significant weather observed at this time

METAR text: EBLG 190050Z 06007KT CAVOK 13/04 Q1025 NOSIG
Conditions at: EBLG (BIERSET/LIEGE (C, BE) observed 0050 UTC 19 April 2019
Temperature: 13.0°C (55°F)
Dewpoint: 4.0°C (39°F) [RH = 54%]
Pressure (altimeter): 30.27 inches Hg (1025.0 mb)
Winds: from the ENE (60 degrees) at 8 MPH (7 knots; 3.6 m/s)
Visibility: 6 or more miles (10+ km)
Ceiling: ceiling and visibility are OK
Clouds: unknown
Weather: no significant weather observed at this time

METAR text: EBLG 190020Z 06008KT CAVOK 13/04 Q1025 NOSIG
Conditions at: EBLG (BIERSET/LIEGE (C, BE) observed 0020 UTC 19 April 2019
Temperature: 13.0°C (55°F)
Dewpoint: 4.0°C (39°F) [RH = 54%]
Pressure (altimeter): 30.27 inches Hg (1025.0 mb)
Winds: from the ENE (60 degrees) at 9 MPH (8 knots; 4.1 m/s)
Visibility: 6 or more miles (10+ km)
Ceiling: ceiling and visibility are OK
Clouds: unknown
Weather: no significant weather observed at this time

METAR text: EBLG 182350Z 07005KT CAVOK 13/04 Q1025 NOSIG
Conditions at: EBLG (BIERSET/LIEGE (C, BE) observed 2350 UTC 18 April 2019
Temperature: 13.0°C (55°F)
Dewpoint: 4.0°C (39°F) [RH = 54%]
Pressure (altimeter): 30.27 inches Hg (1025.0 mb)
Winds: from the ENE (70 degrees) at 6 MPH (5 knots; 2.6 m/s)
Visibility: 6 or more miles (10+ km)
Ceiling: ceiling and visibility are OK
Clouds: unknown
Weather: no significant weather observed at this time

METAR text: EBLG 182320Z 09004KT CAVOK 14/03 Q1025 NOSIG
Conditions at: EBLG (BIERSET/LIEGE (C, BE) observed 2320 UTC 18 April 2019
Temperature: 14.0°C (57°F)
Dewpoint: 3.0°C (37°F) [RH = 47%]
Pressure (altimeter): 30.27 inches Hg (1025.0 mb)
Winds: from the E (90 degrees) at 5 MPH (4 knots; 2.1 m/s)
Visibility: 6 or more miles (10+ km)
Ceiling: ceiling and visibility are OK
Clouds: unknown
Weather: no significant weather observed at this time

METAR text: EBLG 182250Z 09007KT CAVOK 15/03 Q1025 NOSIG
Conditions at: EBLG (BIERSET/LIEGE (C, BE) observed 2250 UTC 18 April 2019
Temperature: 15.0°C (59°F)
Dewpoint: 3.0°C (37°F) [RH = 44%]
Pressure (altimeter): 30.27 inches Hg (1025.0 mb)
Winds: from the E (90 degrees) at 8 MPH (7 knots; 3.6 m/s)
Visibility: 6 or more miles (10+ km)
Ceiling: ceiling and visibility are OK
Clouds: unknown
Weather: no significant weather observed at this time

METAR text: EBLG 182220Z 08007KT CAVOK 15/03 Q1024 NOSIG
Conditions at: EBLG (BIERSET/LIEGE (C, BE) observed 2220 UTC 18 April 2019
Temperature: 15.0°C (59°F)
Dewpoint: 3.0°C (37°F) [RH = 44%]
Pressure (altimeter): 30.24 inches Hg (1024.0 mb)
Winds: from the E (80 degrees) at 8 MPH (7 knots; 3.6 m/s)
Visibility: 6 or more miles (10+ km)
Ceiling: ceiling and visibility are OK
Clouds: unknown
Weather: no significant weather observed at this time

METAR text: EBLG 182150Z 08006KT CAVOK 16/03 Q1024 NOSIG
Conditions at: EBLG (BIERSET/LIEGE (C, BE) observed 2150 UTC 18 April 2019
Temperature: 16.0°C (61°F)
Dewpoint: 3.0°C (37°F) [RH = 42%]
Pressure (altimeter): 30.24 inches Hg (1024.0 mb)
Winds: from the E (80 degrees) at 7 MPH (6 knots; 3.1 m/s)
Visibility: 6 or more miles (10+ km)
Ceiling: ceiling and visibility are OK
Clouds: unknown
Weather: no significant weather observed at this time

METAR text: EBLG 182120Z 10005KT CAVOK 16/03 Q1024 NOSIG
Conditions at: EBLG (BIERSET/LIEGE (C, BE) observed 2120 UTC 18 April 2019
Temperature: 16.0°C (61°F)
Dewpoint: 3.0°C (37°F) [RH = 42%]
Pressure (altimeter): 30.24 inches Hg (1024.0 mb)
Winds: from the E (100 degrees) at 6 MPH (5 knots; 2.6 m/s)
Visibility: 6 or more miles (10+ km)
Ceiling: ceiling and visibility are OK
Clouds: unknown
Weather: no significant weather observed at this time

METAR text: EBLG 182050Z 10005KT CAVOK 16/03 Q1024 NOSIG
Conditions at: EBLG (BIERSET/LIEGE (C, BE) observed 2050 UTC 18 April 2019
Temperature: 16.0°C (61°F)
Dewpoint: 3.0°C (37°F) [RH = 42%]
Pressure (altimeter): 30.24 inches Hg (1024.0 mb)
Winds: from the E (100 degrees) at 6 MPH (5 knots; 2.6 m/s)
Visibility: 6 or more miles (10+ km)
Ceiling: ceiling and visibility are OK
Clouds: unknown
Weather: no significant weather observed at this time

METAR text: EBLG 182020Z 09006KT CAVOK 17/03 Q1024 NOSIG
Conditions at: EBLG (BIERSET/LIEGE (C, BE) observed 2020 UTC 18 April 2019
Temperature: 17.0°C (63°F)
Dewpoint: 3.0°C (37°F) [RH = 39%]
Pressure (altimeter): 30.24 inches Hg (1024.0 mb)
Winds: from the E (90 degrees) at 7 MPH (6 knots; 3.1 m/s)
Visibility: 6 or more miles (10+ km)
Ceiling: ceiling and visibility are OK
Clouds: unknown
Weather: no significant weather observed at this time

METAR text: EBLG 181950Z 07004KT CAVOK 16/04 Q1024 NOSIG
Conditions at: EBLG (BIERSET/LIEGE (C, BE) observed 1950 UTC 18 April 2019
Temperature: 16.0°C (61°F)
Dewpoint: 4.0°C (39°F) [RH = 45%]
Pressure (altimeter): 30.24 inches Hg (1024.0 mb)
Winds: from the ENE (70 degrees) at 5 MPH (4 knots; 2.1 m/s)
Visibility: 6 or more miles (10+ km)
Ceiling: ceiling and visibility are OK
Clouds: unknown
Weather: no significant weather observed at this time

METAR text: EBLG 181920Z 08005KT CAVOK 17/03 Q1024 NOSIG
Conditions at: EBLG (BIERSET/LIEGE (C, BE) observed 1920 UTC 18 April 2019
Temperature: 17.0°C (63°F)
Dewpoint: 3.0°C (37°F) [RH = 39%]
Pressure (altimeter): 30.24 inches Hg (1024.0 mb)
Winds: from the E (80 degrees) at 6 MPH (5 knots; 2.6 m/s)
Visibility: 6 or more miles (10+ km)
Ceiling: ceiling and visibility are OK
Clouds: unknown
Weather: no significant weather observed at this time

METAR text: EBLG 181850Z 09005KT CAVOK 18/03 Q1023 NOSIG
Conditions at: EBLG (BIERSET/LIEGE (C, BE) observed 1850 UTC 18 April 2019
Temperature: 18.0°C (64°F)
Dewpoint: 3.0°C (37°F) [RH = 37%]
Pressure (altimeter): 30.21 inches Hg (1023.0 mb)
Winds: from the E (90 degrees) at 6 MPH (5 knots; 2.6 m/s)
Visibility: 6 or more miles (10+ km)
Ceiling: ceiling and visibility are OK
Clouds: unknown
Weather: no significant weather observed at this time

METAR text: EBLG 181820Z 08007KT CAVOK 19/04 Q1023 NOSIG
Conditions at: EBLG (BIERSET/LIEGE (C, BE) observed 1820 UTC 18 April 2019
Temperature: 19.0°C (66°F)
Dewpoint: 4.0°C (39°F) [RH = 37%]
Pressure (altimeter): 30.21 inches Hg (1023.0 mb)
Winds: from the E (80 degrees) at 8 MPH (7 knots; 3.6 m/s)
Visibility: 6 or more miles (10+ km)
Ceiling: ceiling and visibility are OK
Clouds: unknown
Weather: no significant weather observed at this time

METAR text: EBLG 181750Z 08008KT CAVOK 19/03 Q1023 NOSIG
Conditions at: EBLG (BIERSET/LIEGE (C, BE) observed 1750 UTC 18 April 2019
Temperature: 19.0°C (66°F)
Dewpoint: 3.0°C (37°F) [RH = 34%]
Pressure (altimeter): 30.21 inches Hg (1023.0 mb)
Winds: from the E (80 degrees) at 9 MPH (8 knots; 4.1 m/s)
Visibility: 6 or more miles (10+ km)
Ceiling: ceiling and visibility are OK
Clouds: unknown
Weather: no significant weather observed at this time

METAR text: EBLG 181720Z 07011G21KT 020V110 CAVOK 20/04 Q1022 NOSIG
Conditions at: EBLG (BIERSET/LIEGE (C, BE) observed 1720 UTC 18 April 2019
Temperature: 20.0°C (68°F)
Dewpoint: 4.0°C (39°F) [RH = 35%]
Pressure (altimeter): 30.18 inches Hg (1022.0 mb)
Winds: from the ENE (70 degrees) at 13 MPH (11 knots; 5.7 m/s)
gusting to 24 MPH (21 knots; 10.8 m/s)
Visibility: 6 or more miles (10+ km)
Ceiling: ceiling and visibility are OK
Clouds: unknown
Weather: no significant weather observed at this time

METAR text: EBLG 181650Z 08012KT CAVOK 20/04 Q1022 NOSIG
Conditions at: EBLG (BIERSET/LIEGE (C, BE) observed 1650 UTC 18 April 2019
Temperature: 20.0°C (68°F)
Dewpoint: 4.0°C (39°F) [RH = 35%]
Pressure (altimeter): 30.18 inches Hg (1022.0 mb)
Winds: from the E (80 degrees) at 14 MPH (12 knots; 6.2 m/s)
Visibility: 6 or more miles (10+ km)
Ceiling: ceiling and visibility are OK
Clouds: unknown
Weather: no significant weather observed at this time

METAR text: EBLG 181620Z 07013KT CAVOK 20/04 Q1022 NOSIG
Conditions at: EBLG (BIERSET/LIEGE (C, BE) observed 1620 UTC 18 April 2019
Temperature: 20.0°C (68°F)
Dewpoint: 4.0°C (39°F) [RH = 35%]
Pressure (altimeter): 30.18 inches Hg (1022.0 mb)
Winds: from the ENE (70 degrees) at 15 MPH (13 knots; 6.7 m/s)
Visibility: 6 or more miles (10+ km)
Ceiling: ceiling and visibility are OK
Clouds: unknown
Weather: no significant weather observed at this time

METAR text: EBLG 181550Z 06014KT CAVOK 20/04 Q1022 NOSIG
Conditions at: EBLG (BIERSET/LIEGE (C, BE) observed 1550 UTC 18 April 2019
Temperature: 20.0°C (68°F)
Dewpoint: 4.0°C (39°F) [RH = 35%]
Pressure (altimeter): 30.18 inches Hg (1022.0 mb)
Winds: from the ENE (60 degrees) at 16 MPH (14 knots; 7.2 m/s)
Visibility: 6 or more miles (10+ km)
Ceiling: ceiling and visibility are OK
Clouds: unknown
Weather: no significant weather observed at this time

METAR text: EBLG 181520Z 07012KT CAVOK 20/05 Q1022 NOSIG
Conditions at: EBLG (BIERSET/LIEGE (C, BE) observed 1520 UTC 18 April 2019
Temperature: 20.0°C (68°F)
Dewpoint: 5.0°C (41°F) [RH = 37%]
Pressure (altimeter): 30.18 inches Hg (1022.0 mb)
Winds: from the ENE (70 degrees) at 14 MPH (12 knots; 6.2 m/s)
Visibility: 6 or more miles (10+ km)
Ceiling: ceiling and visibility are OK
Clouds: unknown
Weather: no significant weather observed at this time

METAR text: EBLG 181450Z 06012KT 030V090 CAVOK 20/04 Q1022 NOSIG
Conditions at: EBLG (BIERSET/LIEGE (C, BE) observed 1450 UTC 18 April 2019
Temperature: 20.0°C (68°F)
Dewpoint: 4.0°C (39°F) [RH = 35%]
Pressure (altimeter): 30.18 inches Hg (1022.0 mb)
Winds: from the ENE (60 degrees) at 14 MPH (12 knots; 6.2 m/s)
Visibility: 6 or more miles (10+ km)
Ceiling: ceiling and visibility are OK
Clouds: unknown
Weather: no significant weather observed at this time

METAR text: EBLG 181420Z 07011KT CAVOK 20/04 Q1022 NOSIG
Conditions at: EBLG (BIERSET/LIEGE (C, BE) observed 1420 UTC 18 April 2019
Temperature: 20.0°C (68°F)
Dewpoint: 4.0°C (39°F) [RH = 35%]
Pressure (altimeter): 30.18 inches Hg (1022.0 mb)
Winds: from the ENE (70 degrees) at 13 MPH (11 knots; 5.7 m/s)
Visibility: 6 or more miles (10+ km)
Ceiling: ceiling and visibility are OK
Clouds: unknown
Weather: no significant weather observed at this time

METAR text: EBLG 181350Z 07012KT 030V090 CAVOK 20/04 Q1022 NOSIG
Conditions at: EBLG (BIERSET/LIEGE (C, BE) observed 1350 UTC 18 April 2019
Temperature: 20.0°C (68°F)
Dewpoint: 4.0°C (39°F) [RH = 35%]
Pressure (altimeter): 30.18 inches Hg (1022.0 mb)
Winds: from the ENE (70 degrees) at 14 MPH (12 knots; 6.2 m/s)
Visibility: 6 or more miles (10+ km)
Ceiling: ceiling and visibility are OK
Clouds: unknown
Weather: no significant weather observed at this time

METAR text: EBLG 181320Z 06014KT 030V090 CAVOK 20/05 Q1022 NOSIG
Conditions at: EBLG (BIERSET/LIEGE (C, BE) observed 1320 UTC 18 April 2019
Temperature: 20.0°C (68°F)
Dewpoint: 5.0°C (41°F) [RH = 37%]
Pressure (altimeter): 30.18 inches Hg (1022.0 mb)
Winds: from the ENE (60 degrees) at 16 MPH (14 knots; 7.2 m/s)
Visibility: 6 or more miles (10+ km)
Ceiling: ceiling and visibility are OK
Clouds: unknown
Weather: no significant weather observed at this time

METAR text: EBLG 181250Z 07014KT 040V100 CAVOK 20/04 Q1022 NOSIG
Conditions at: EBLG (BIERSET/LIEGE (C, BE) observed 1250 UTC 18 April 2019
Temperature: 20.0°C (68°F)
Dewpoint: 4.0°C (39°F) [RH = 35%]
Pressure (altimeter): 30.18 inches Hg (1022.0 mb)
Winds: from the ENE (70 degrees) at 16 MPH (14 knots; 7.2 m/s)
Visibility: 6 or more miles (10+ km)
Ceiling: ceiling and visibility are OK
Clouds: unknown
Weather: no significant weather observed at this time

METAR text: EBLG 181220Z 08011KT 050V140 CAVOK 20/02 Q1023 NOSIG
Conditions at: EBLG (BIERSET/LIEGE (C, BE) observed 1220 UTC 18 April 2019
Temperature: 20.0°C (68°F)
Dewpoint: 2.0°C (36°F) [RH = 30%]
Pressure (altimeter): 30.21 inches Hg (1023.0 mb)
Winds: from the E (80 degrees) at 13 MPH (11 knots; 5.7 m/s)
Visibility: 6 or more miles (10+ km)
Ceiling: ceiling and visibility are OK
Clouds: unknown
Weather: no significant weather observed at this time

METAR text: EBLG 181150Z 10008G19KT 060V160 CAVOK 20/02 Q1023 NOSIG
Conditions at: EBLG (BIERSET/LIEGE (C, BE) observed 1150 UTC 18 April 2019
Temperature: 20.0°C (68°F)
Dewpoint: 2.0°C (36°F) [RH = 30%]
Pressure (altimeter): 30.21 inches Hg (1023.0 mb)
Winds: from the E (100 degrees) at 9 MPH (8 knots; 4.1 m/s)
gusting to 22 MPH (19 knots; 9.8 m/s)
Visibility: 6 or more miles (10+ km)
Ceiling: ceiling and visibility are OK
Clouds: unknown
Weather: no significant weather observed at this time

METAR text: EBLG 181120Z 12009KT CAVOK 20/02 Q1023 NOSIG
Conditions at: EBLG (BIERSET/LIEGE (C, BE) observed 1120 UTC 18 April 2019
Temperature: 20.0°C (68°F)
Dewpoint: 2.0°C (36°F) [RH = 30%]
Pressure (altimeter): 30.21 inches Hg (1023.0 mb)
Winds: from the ESE (120 degrees) at 10 MPH (9 knots; 4.6 m/s)
Visibility: 6 or more miles (10+ km)
Ceiling: ceiling and visibility are OK
Clouds: unknown
Weather: no significant weather observed at this time

METAR text: EBLG 181050Z 10009KT 060V130 CAVOK 19/00 Q1023 NOSIG
Conditions at: EBLG (BIERSET/LIEGE (C, BE) observed 1050 UTC 18 April 2019
Temperature: 19.0°C (66°F)
Dewpoint: 0.0°C (32°F) [RH = 28%]
Pressure (altimeter): 30.21 inches Hg (1023.0 mb)
Winds: from the E (100 degrees) at 10 MPH (9 knots; 4.6 m/s)
Visibility: 6 or more miles (10+ km)
Ceiling: ceiling and visibility are OK
Clouds: unknown
Weather: no significant weather observed at this time

METAR text: EBLG 181020Z 11011KT CAVOK 19/01 Q1023 NOSIG
Conditions at: EBLG (BIERSET/LIEGE (C, BE) observed 1020 UTC 18 April 2019
Temperature: 19.0°C (66°F)
Dewpoint: 1.0°C (34°F) [RH = 30%]
Pressure (altimeter): 30.21 inches Hg (1023.0 mb)
Winds: from the ESE (110 degrees) at 13 MPH (11 knots; 5.7 m/s)
Visibility: 6 or more miles (10+ km)
Ceiling: ceiling and visibility are OK
Clouds: unknown
Weather: no significant weather observed at this time

METAR text: EBLG 180950Z 11008KT 060V180 CAVOK 19/02 Q1023 NOSIG
Conditions at: EBLG (BIERSET/LIEGE (C, BE) observed 0950 UTC 18 April 2019
Temperature: 19.0°C (66°F)
Dewpoint: 2.0°C (36°F) [RH = 32%]
Pressure (altimeter): 30.21 inches Hg (1023.0 mb)
Winds: from the ESE (110 degrees) at 9 MPH (8 knots; 4.1 m/s)
Visibility: 6 or more miles (10+ km)
Ceiling: ceiling and visibility are OK
Clouds: unknown
Weather: no significant weather observed at this time

METAR text: EBLG 180920Z 09005KT 050V120 CAVOK 18/04 Q1024 NOSIG
Conditions at: EBLG (BIERSET/LIEGE (C, BE) observed 0920 UTC 18 April 2019
Temperature: 18.0°C (64°F)
Dewpoint: 4.0°C (39°F) [RH = 39%]
Pressure (altimeter): 30.24 inches Hg (1024.0 mb)
Winds: from the E (90 degrees) at 6 MPH (5 knots; 2.6 m/s)
Visibility: 6 or more miles (10+ km)
Ceiling: ceiling and visibility are OK
Clouds: unknown
Weather: no significant weather observed at this time

METAR text: EBLG 180850Z 10009KT CAVOK 17/03 Q1024 NOSIG
Conditions at: EBLG (BIERSET/LIEGE (C, BE) observed 0850 UTC 18 April 2019
Temperature: 17.0°C (63°F)
Dewpoint: 3.0°C (37°F) [RH = 39%]
Pressure (altimeter): 30.24 inches Hg (1024.0 mb)
Winds: from the E (100 degrees) at 10 MPH (9 knots; 4.6 m/s)
Visibility: 6 or more miles (10+ km)
Ceiling: ceiling and visibility are OK
Clouds: unknown
Weather: no significant weather observed at this time

METAR text: EBLG 180820Z 12006KT CAVOK 16/02 Q1024 NOSIG
Conditions at: EBLG (BIERSET/LIEGE (C, BE) observed 0820 UTC 18 April 2019
Temperature: 16.0°C (61°F)
Dewpoint: 2.0°C (36°F) [RH = 39%]
Pressure (altimeter): 30.24 inches Hg (1024.0 mb)
Winds: from the ESE (120 degrees) at 7 MPH (6 knots; 3.1 m/s)
Visibility: 6 or more miles (10+ km)
Ceiling: ceiling and visibility are OK
Clouds: unknown
Weather: no significant weather observed at this time

METAR text: EBLG 180750Z 11006KT CAVOK 16/02 Q1023 NOSIG
Conditions at: EBLG (BIERSET/LIEGE (C, BE) observed 0750 UTC 18 April 2019
Temperature: 16.0°C (61°F)
Dewpoint: 2.0°C (36°F) [RH = 39%]
Pressure (altimeter): 30.21 inches Hg (1023.0 mb)
Winds: from the ESE (110 degrees) at 7 MPH (6 knots; 3.1 m/s)
Visibility: 6 or more miles (10+ km)
Ceiling: ceiling and visibility are OK
Clouds: unknown
Weather: no significant weather observed at this time

METAR text: EBLG 180720Z 13006KT 100V160 CAVOK 15/02 Q1023 NOSIG
Conditions at: EBLG (BIERSET/LIEGE (C, BE) observed 0720 UTC 18 April 2019
Temperature: 15.0°C (59°F)
Dewpoint: 2.0°C (36°F) [RH = 41%]
Pressure (altimeter): 30.21 inches Hg (1023.0 mb)
Winds: from the SE (130 degrees) at 7 MPH (6 knots; 3.1 m/s)
Visibility: 6 or more miles (10+ km)
Ceiling: ceiling and visibility are OK
Clouds: unknown
Weather: no significant weather observed at this time

METAR text: EBLG 180650Z VRB06KT CAVOK 14/02 Q1023 NOSIG
Conditions at: EBLG (BIERSET/LIEGE (C, BE) observed 0650 UTC 18 April 2019
Temperature: 14.0°C (57°F)
Dewpoint: 2.0°C (36°F) [RH = 44%]
Pressure (altimeter): 30.21 inches Hg (1023.0 mb)
Winds: variable direction winds at 7 MPH (6 knots; 3.1 m/s)
Visibility: 6 or more miles (10+ km)
Ceiling: ceiling and visibility are OK
Clouds: unknown
Weather: no significant weather observed at this time

METAR text: EBLG 180620Z 12006KT CAVOK 13/02 Q1023 NOSIG
Conditions at: EBLG (BIERSET/LIEGE (C, BE) observed 0620 UTC 18 April 2019
Temperature: 13.0°C (55°F)
Dewpoint: 2.0°C (36°F) [RH = 47%]
Pressure (altimeter): 30.21 inches Hg (1023.0 mb)
Winds: from the ESE (120 degrees) at 7 MPH (6 knots; 3.1 m/s)
Visibility: 6 or more miles (10+ km)
Ceiling: ceiling and visibility are OK
Clouds: unknown
Weather: no significant weather observed at this time

Forecast for: EBLG (BIERSET/LIEGE (C, BE)
Text: TAF EBLG 191715Z 1918/2024 07005KT CAVOK
Forecast period: 1800 UTC 19 April 2019 to 0000 UTC 21 April 2019
Forecast type: FROM: standard forecast or significant change
Winds: from the ENE (70 degrees) at 6 MPH (5 knots; 2.6 m/s)
Visibility: 6 or more miles 10+ km)
Ceiling: unknown
Clouds: missing
Weather: NSW  (no significant weather)